Time;durP1;ratioP1;P1;durP2;ratioP2;P2;SDS_P1;SDS_P2;PMS_P1;PMS_P2;Temp;Humidity;BMP_temperature;BMP_pressure;BME280_temperature;BME280_humidity;BME280_pressure;Samples;Min_cycle;Max_cycle;Signal;HPM_P1;HPM_P2
2023/01/17 00:02:02;;;;;;;65.07;41.30;;;;;;;5.34;100.00;99502.63;5053128;28;20439;-72
2023/01/17 00:10:01;;;;;;;60.88;40.00;;;;;;;5.25;100.00;99486.81;5053196;28;20067;-71
2023/01/17 00:12:29;;;;;;;58.08;38.20;;;;;;;5.78;100.00;99546.50;5052944;28;20101;-71
2023/01/17 00:14:56;;;;;;;54.72;35.58;;;;;;;5.87;100.00;99545.53;5052965;28;20082;-72
2023/01/17 00:17:23;;;;;;;52.97;34.78;;;;;;;5.85;100.00;99554.81;5052312;28;20033;-72
2023/01/17 01:35:11;;;;;;;49.58;31.73;;;;;;;4.96;100.00;99481.34;5050511;28;20063;-71
2023/01/17 01:37:36;;;;;;;49.67;31.40;;;;;;;4.91;100.00;99475.53;5050646;28;20471;-70
2023/01/17 01:40:02;;;;;;;50.58;31.70;;;;;;;4.92;100.00;99481.41;5050164;28;20036;-70
2023/01/17 01:42:27;;;;;;;48.58;31.67;;;;;;;5.17;100.00;99476.00;5050502;28;20067;-70
2023/01/17 01:44:54;;;;;;;51.00;31.90;;;;;;;5.12;100.00;99490.38;5048792;28;20126;-70
2023/01/17 01:47:28;;;;;;;56.75;36.30;;;;;;;5.19;100.00;99499.47;5050156;28;20025;-70
2023/01/17 01:49:54;;;;;;;51.80;32.60;;;;;;;4.70;100.00;99445.59;5050644;28;20036;-71
2023/01/17 01:52:22;;;;;;;48.53;31.30;;;;;;;4.83;100.00;99468.94;5082541;28;20033;-70
2023/01/17 01:54:59;;;;;;;48.13;31.42;;;;;;;4.79;100.00;99474.88;5049440;28;20035;-70
2023/01/17 01:57:30;;;;;;;51.70;32.88;;;;;;;4.74;100.00;99486.66;5051178;28;20025;-71
2023/01/17 02:00:20;;;;;;;49.72;31.90;;;;;;;4.75;100.00;99491.72;5050224;28;20396;-71
2023/01/17 02:02:48;;;;;;;49.90;30.35;;;;;;;4.38;100.00;99428.41;5048915;28;20064;-70
2023/01/17 02:05:16;;;;;;;47.53;30.10;;;;;;;4.74;100.00;99492.56;5050757;28;20025;-70
2023/01/17 02:08:00;;;;;;;50.25;31.55;;;;;;;4.26;100.00;99417.66;5048280;28;20033;-71
2023/01/17 02:10:25;;;;;;;49.17;30.92;;;;;;;4.63;100.00;99499.41;5049655;28;20067;-72
2023/01/17 02:12:53;;;;;;;50.60;31.05;;;;;;;4.68;100.00;99502.69;5050909;28;20053;-71
2023/01/17 02:15:27;;;;;;;48.63;31.15;;;;;;;4.31;100.00;99420.94;5049773;28;20029;-71
2023/01/17 02:18:06;;;;;;;46.45;30.42;;;;;;;4.58;100.00;99481.00;5050769;28;20091;-71
2023/01/17 02:20:41;;;;;;;45.97;29.58;;;;;;;4.50;100.00;99502.91;5048980;28;20044;-70
2023/01/17 02:23:54;;;;;;;47.50;31.15;;;;;;;4.59;100.00;99485.19;5050047;28;20035;-70
2023/01/17 02:26:36;;;;;;;46.38;31.13;;;;;;;4.49;100.00;99481.13;5033497;28;20064;-73
2023/01/17 02:29:13;;;;;;;48.00;31.25;;;;;;;4.42;100.00;99463.59;5046014;28;20087;-72
2023/01/17 02:31:50;;;;;;;48.22;30.95;;;;;;;4.15;100.00;99389.28;5051156;28;20036;-72
2023/01/17 02:34:43;;;;;;;48.92;32.17;;;;;;;4.73;100.00;99492.56;5050870;28;20025;-72
2023/01/17 02:37:27;;;;;;;49.05;30.58;;;;;;;4.63;100.00;99470.88;5050959;28;20032;-72
2023/01/17 02:40:07;;;;;;;47.78;30.48;;;;;;;4.20;100.00;99380.81;5048111;28;20029;-72
2023/01/17 02:42:39;;;;;;;45.05;28.00;;;;;;;4.68;100.00;99459.91;5039525;28;20124;-72
2023/01/17 02:45:06;;;;;;;42.30;26.70;;;;;;;4.58;100.00;99399.63;5030132;28;20030;-72
2023/01/17 02:47:32;;;;;;;39.88;26.05;;;;;;;5.29;100.00;99472.47;5030737;28;20036;-72
2023/01/17 02:50:14;;;;;;;42.97;26.55;;;;;;;4.79;100.00;99463.13;5030882;28;20025;-75
2023/01/17 02:52:54;;;;;;;38.70;25.67;;;;;;;5.09;100.00;99495.44;5033525;28;20491;-73
2023/01/17 02:55:27;;;;;;;39.10;25.88;;;;;;;4.88;100.00;99445.38;5065808;28;20033;-70
2023/01/17 02:58:23;;;;;;;40.45;26.23;;;;;;;4.98;100.00;99499.78;5048015;28;20543;-71
2023/01/17 03:01:29;;;;;;;41.33;26.77;;;;;;;5.22;100.00;99486.84;5052365;28;20067;-73
2023/01/17 03:04:35;;;;;;;41.33;26.50;;;;;;;5.04;100.00;99498.88;5031326;28;20049;-70
2023/01/17 03:07:06;;;;;;;42.45;26.10;;;;;;;4.91;100.00;99411.75;5031483;28;20060;-70
2023/01/17 03:09:32;;;;;;;43.55;26.50;;;;;;;5.19;100.00;99475.97;5033296;28;20029;-71
2023/01/17 03:11:58;;;;;;;40.70;26.45;;;;;;;5.19;100.00;99478.50;5033341;28;20120;-71
2023/01/17 03:14:25;;;;;;;39.95;26.50;;;;;;;4.96;100.00;99393.22;5031980;28;20050;-72
2023/01/17 03:16:51;;;;;;;41.67;27.92;;;;;;;4.62;100.00;99340.84;5033326;28;20040;-73
2023/01/17 03:19:17;;;;;;;40.45;27.92;;;;;;;5.34;100.00;99465.69;5033620;28;20060;-71
2023/01/17 03:21:42;;;;;;;44.25;28.77;;;;;;;5.44;100.00;99453.75;5033598;28;20065;-72
2023/01/17 03:24:07;;;;;;;44.13;28.98;;;;;;;4.99;100.00;99389.81;5032396;28;20137;-72
2023/01/17 03:26:33;;;;;;;44.45;28.58;;;;;;;4.96;100.00;99403.28;5032378;28;20037;-71
2023/01/17 03:28:58;;;;;;;50.63;30.90;;;;;;;4.95;100.00;99393.25;5031664;28;20443;-71
2023/01/17 03:31:24;;;;;;;42.88;28.65;;;;;;;4.87;100.00;99373.19;5042593;28;20028;-72
2023/01/17 03:33:49;;;;;;;47.45;29.83;;;;;;;5.55;100.00;99455.25;5051453;28;20029;-73
2023/01/17 03:36:15;;;;;;;43.92;28.13;;;;;;;5.64;100.00;99454.28;5053249;28;20480;-72
2023/01/17 03:38:40;;;;;;;40.78;28.30;;;;;;;4.83;100.00;99330.47;5052938;28;20507;-73
2023/01/17 03:41:06;;;;;;;43.60;28.35;;;;;;;4.80;100.00;99361.56;5053285;28;20063;-73
2023/01/17 03:43:32;;;;;;;41.42;28.45;;;;;;;5.71;100.00;99436.50;5052190;28;20119;-72
2023/01/17 03:46:06;;;;;;;44.95;28.50;;;;;;;5.25;100.00;99349.91;5052899;28;20100;-72
2023/01/17 03:48:31;;;;;;;42.67;27.40;;;;;;;5.70;100.00;99431.47;5052943;28;20033;-73
2023/01/17 03:50:57;;;;;;;43.47;27.65;;;;;;;5.72;100.00;99440.69;5053301;28;20124;-72
2023/01/17 03:53:23;;;;;;;49.45;31.55;;;;;;;4.93;100.00;99358.00;5051452;28;20025;-73
2023/01/17 03:55:48;;;;;;;46.13;29.85;;;;;;;4.58;100.00;99269.59;5053706;28;20040;-70
2023/01/17 03:58:15;;;;;;;49.92;30.65;;;;;;;5.29;100.00;99401.91;5052789;28;20111;-74
2023/01/17 04:00:40;;;;;;;53.75;33.58;;;;;;;5.13;100.00;99380.38;5051962;28;20056;-72
2023/01/17 04:03:06;;;;;;;47.42;30.70;;;;;;;4.58;100.00;99272.13;5051995;28;20488;-70
2023/01/17 04:05:32;;;;;;;52.92;33.28;;;;;;;4.82;100.00;99337.19;5052767;28;20116;-71
2023/01/17 04:07:57;;;;;;;50.85;32.30;;;;;;;5.38;100.00;99433.69;5051648;28;20040;-72
2023/01/17 04:10:22;;;;;;;47.60;30.02;;;;;;;5.09;100.00;99429.94;5051498;28;20036;-71
2023/01/17 04:12:50;;;;;;;43.00;28.15;;;;;;;4.86;100.00;99424.41;5052525;28;20120;-71
2023/01/17 04:15:15;;;;;;;42.78;26.65;;;;;;;4.71;100.00;99356.69;5050020;28;20029;-71
2023/01/17 04:17:41;;;;;;;45.22;27.67;;;;;;;5.10;100.00;99411.47;5051838;28;20052;-71
2023/01/17 04:20:12;;;;;;;45.42;28.55;;;;;;;5.07;100.00;99415.72;5051453;28;20523;-73
2023/01/17 04:22:38;;;;;;;40.95;25.42;;;;;;;4.92;100.00;99386.56;5051182;28;20115;-73
2023/01/17 04:25:03;;;;;;;35.50;23.50;;;;;;;4.91;100.00;99374.00;5047967;28;20513;-72
2023/01/17 04:27:30;;;;;;;34.58;22.65;;;;;;;4.36;100.00;99303.47;5051534;28;20024;-72
2023/01/17 04:29:55;;;;;;;36.65;22.90;;;;;;;4.84;100.00;99388.34;5052513;28;20507;-73
2023/01/17 04:32:20;;;;;;;36.58;23.27;;;;;;;5.00;100.00;99387.28;5050863;28;20033;-73
2023/01/17 04:34:46;;;;;;;39.00;24.25;;;;;;;4.34;100.00;99275.00;5051078;28;20427;-73
2023/01/17 04:37:11;;;;;;;39.47;25.00;;;;;;;4.94;100.00;99343.72;5052713;28;20029;-73
2023/01/17 04:39:37;;;;;;;39.08;23.80;;;;;;;5.36;100.00;99408.53;5051967;28;20029;-73
2023/01/17 04:42:02;;;;;;;34.22;23.40;;;;;;;5.59;100.00;99410.66;5051859;28;20545;-73
2023/01/17 04:44:27;;;;;;;35.53;23.40;;;;;;;5.69;100.00;99386.94;5052057;28;20033;-71
2023/01/17 04:46:53;;;;;;;41.85;27.52;;;;;;;5.74;100.00;99395.28;5051194;28;20434;-73
2023/01/17 04:49:18;;;;;;;43.55;27.85;;;;;;;6.00;100.00;99413.31;5050851;28;20135;-72
2023/01/17 04:51:44;;;;;;;44.92;28.75;;;;;;;6.04;100.00;99397.28;5052195;28;20021;-73
2023/01/17 04:54:09;;;;;;;55.20;33.67;;;;;;;5.81;100.00;99387.56;5050195;28;20032;-73
2023/01/17 04:56:34;;;;;;;49.58;33.10;;;;;;;5.94;100.00;99409.19;5050052;28;20025;-73
2023/01/17 04:59:00;;;;;;;50.45;32.70;;;;;;;5.26;100.00;99302.03;5050269;28;20037;-73
2023/01/17 05:01:25;;;;;;;48.55;32.25;;;;;;;4.96;100.00;99251.34;5051091;28;20099;-71
2023/01/17 05:03:51;;;;;;;50.53;31.67;;;;;;;5.65;100.00;99381.13;5049663;28;20052;-72
2023/01/17 05:06:16;;;;;;;43.92;27.98;;;;;;;5.09;100.00;99323.34;5049783;28;20033;-72
2023/01/17 05:08:42;;;;;;;45.80;27.88;;;;;;;5.38;100.00;99390.88;5051109;28;20068;-72
2023/01/17 05:11:07;;;;;;;41.40;27.58;;;;;;;5.33;100.00;99402.72;5035504;28;20468;-73
2023/01/17 05:13:33;;;;;;;43.05;26.23;;;;;;;5.43;100.00;99404.22;5041602;28;20132;-73
2023/01/17 05:15:58;;;;;;;44.33;26.50;;;;;;;4.97;100.00;99341.16;5050928;28;20094;-75
2023/01/17 05:18:24;;;;;;;40.63;26.45;;;;;;;5.30;100.00;99416.19;5050992;28;20120;-72
2023/01/17 05:20:49;;;;;;;43.72;27.75;;;;;;;5.51;100.00;99410.78;5053122;28;20033;-75
2023/01/17 05:23:15;;;;;;;61.92;38.60;;;;;;;5.29;100.00;99412.00;5055199;28;20029;-75
2023/01/17 05:25:43;;;;;;;47.53;31.92;;;;;;;5.60;100.00;99425.78;5051914;28;20158;-70
2023/01/17 05:28:10;;;;;;;43.25;26.65;;;;;;;5.86;100.00;99430.41;5051350;28;20095;-72
2023/01/17 05:30:35;;;;;;;44.45;28.23;;;;;;;5.16;100.00;99343.38;5049057;28;20108;-74
2023/01/17 05:33:00;;;;;;;48.75;30.65;;;;;;;5.64;100.00;99413.94;5036596;28;20120;-72
2023/01/17 05:35:29;;;;;;;44.38;29.35;;;;;;;5.65;100.00;99413.06;5049254;28;20118;-72
2023/01/17 05:37:55;;;;;;;42.75;27.95;;;;;;;5.28;100.00;99340.63;5049578;28;20033;-73
2023/01/17 05:40:23;;;;;;;48.63;28.95;;;;;;;5.73;100.00;99424.69;5050745;28;20104;-73
2023/01/17 05:42:51;;;;;;;46.13;29.45;;;;;;;5.67;100.00;99423.97;5049706;28;20025;-73
2023/01/17 05:45:18;;;;;;;48.38;32.78;;;;;;;5.48;100.00;99415.06;5050900;28;20059;-73
2023/01/17 05:47:47;;;;;;;48.97;31.25;;;;;;;4.96;100.00;99331.94;5050134;28;20116;-73
2023/01/17 05:50:15;;;;;;;54.20;33.65;;;;;;;5.73;100.00;99423.84;5048163;28;20419;-73
2023/01/17 05:52:48;;;;;;;53.40;33.53;;;;;;;5.16;100.00;99327.41;5050990;28;20033;-73
2023/01/17 05:55:13;;;;;;;51.22;32.72;;;;;;;5.66;100.00;99397.94;5049876;28;20119;-73
2023/01/17 05:57:39;;;;;;;52.97;32.60;;;;;;;5.73;100.00;99401.16;5049503;28;20545;-73
2023/01/17 06:00:05;;;;;;;47.10;29.67;;;;;;;5.67;100.00;99409.66;5047743;28;20037;-72
2023/01/17 06:02:30;;;;;;;45.30;28.90;;;;;;;5.67;100.00;99403.78;5044555;28;20040;-72
2023/01/17 06:04:56;;;;;;;45.65;29.42;;;;;;;5.78;100.00;99444.78;5050737;28;20044;-73
2023/01/17 06:07:21;;;;;;;44.35;30.02;;;;;;;5.50;100.00;99357.91;5049295;28;20037;-72
2023/01/17 06:09:47;;;;;;;47.53;30.90;;;;;;;5.48;100.00;99387.34;5049673;28;20101;-73
2023/01/17 06:12:12;;;;;;;49.08;32.78;;;;;;;5.86;100.00;99450.56;5037727;28;20571;-72
2023/01/17 06:14:37;;;;;;;48.90;31.38;;;;;;;5.29;100.00;99357.41;5049381;28;20096;-74
2023/01/17 06:17:04;;;;;;;47.97;29.65;;;;;;;5.85;100.00;99464.03;5047244;28;20025;-73
2023/01/17 06:19:29;;;;;;;51.03;30.85;;;;;;;5.46;100.00;99384.00;5047695;28;20033;-71
2023/01/17 06:21:54;;;;;;;49.50;31.70;;;;;;;5.53;100.00;99388.06;5028882;28;20057;-72
2023/01/17 06:24:20;;;;;;;51.55;32.78;;;;;;;5.87;100.00;99439.59;5030529;28;20033;-72
2023/01/17 06:26:45;;;;;;;55.55;35.13;;;;;;;5.50;100.00;99375.53;5031111;28;20030;-76
2023/01/17 06:29:11;;;;;;;55.92;33.55;;;;;;;5.89;100.00;99437.88;5033617;28;20437;-72
2023/01/17 06:31:36;;;;;;;60.35;34.92;;;;;;;5.49;100.00;99399.06;5034602;28;20025;-72
2023/01/17 06:34:03;;;;;;;49.38;31.95;;;;;;;5.78;100.00;99427.16;5054350;28;20024;-72
2023/01/17 06:36:28;;;;;;;52.17;33.00;;;;;;;5.84;100.00;99440.47;5037390;28;20038;-70
2023/01/17 06:38:54;;;;;;;47.90;32.20;;;;;;;5.93;100.00;99434.47;5034504;28;20056;-73
2023/01/17 06:41:22;;;;;;;47.10;30.92;;;;;;;6.04;100.00;99427.53;5033191;28;20765;-73
2023/01/17 06:43:47;;;;;;;49.13;31.67;;;;;;;5.99;100.00;99426.78;5034462;28;20036;-73
2023/01/17 06:46:13;;;;;;;47.67;31.73;;;;;;;5.83;100.00;99367.34;5033990;28;20030;-72
2023/01/17 06:48:38;;;;;;;42.95;30.05;;;;;;;6.37;100.00;99436.97;5047993;28;20064;-70
2023/01/17 06:51:04;;;;;;;46.78;31.48;;;;;;;6.70;100.00;99438.81;5043621;28;20041;-71
2023/01/17 06:53:29;;;;;;;48.15;30.63;;;;;;;7.42;100.00;99435.47;5033751;28;20079;-73
2023/01/17 06:55:56;;;;;;;47.92;28.92;;;;;;;7.15;100.00;99370.44;5033965;28;20045;-70
2023/01/17 06:58:22;;;;;;;44.25;28.90;;;;;;;6.81;100.00;99340.88;5051377;28;20121;-72
2023/01/17 07:00:48;;;;;;;46.38;29.23;;;;;;;7.04;100.00;99423.72;5051402;28;20045;-72
2023/01/17 07:03:21;;;;;;;45.47;28.48;;;;;;;7.68;100.00;99430.63;5045816;28;20110;-69
2023/01/17 07:05:47;;;;;;;40.45;25.73;;;;;;;7.77;100.00;99357.00;5052902;28;20169;-73
2023/01/17 07:08:15;;;;;;;43.22;27.85;;;;;;;8.45;100.00;99367.75;5052112;28;20051;-72
2023/01/17 07:10:40;;;;;;;39.60;24.85;;;;;;;8.30;100.00;99370.75;5050342;28;20518;-72
2023/01/17 07:13:06;;;;;;;34.97;23.38;;;;;;;8.67;100.00;99432.13;5038781;28;20041;-74
2023/01/17 07:15:31;;;;;;;56.28;25.13;;;;;;;9.98;100.00;99452.47;5033238;28;20021;-75
2023/01/17 07:18:00;;;;;;;36.80;23.33;;;;;;;9.64;100.00;99396.94;5043305;28;20041;-71
2023/01/17 07:20:25;;;;;;;33.63;21.48;;;;;;;9.78;100.00;99448.06;5051252;28;20480;-69
2023/01/17 07:22:51;;;;;;;29.17;20.75;;;;;;;8.41;100.00;99373.78;5040335;28;20040;-70
2023/01/17 07:25:16;;;;;;;31.63;21.85;;;;;;;8.44;100.00;99378.75;5034209;28;20492;-70
2023/01/17 07:27:42;;;;;;;35.08;22.75;;;;;;;8.36;100.00;99386.59;5047146;28;20025;-69
2023/01/17 07:30:08;;;;;;;31.05;21.30;;;;;;;8.74;100.00;99447.09;5041120;28;20132;-70
2023/01/17 07:32:34;;;;;;;31.15;20.85;;;;;;;9.18;100.00;99442.41;5049167;28;20106;-73
2023/01/17 07:34:59;;;;;;;32.83;21.73;;;;;;;8.35;100.00;99372.28;5051476;28;20424;-71
2023/01/17 07:37:26;;;;;;;29.55;21.13;;;;;;;8.53;100.00;99379.34;5051959;28;20033;-73
2023/01/17 07:39:52;;;;;;;30.45;22.38;;;;;;;9.02;100.00;99467.41;5042387;28;20393;-72
2023/01/17 07:42:18;;;;;;;30.73;20.02;;;;;;;9.06;100.00;99452.91;5052819;28;20037;-72
2023/01/17 07:44:44;;;;;;;38.53;23.33;;;;;;;8.73;100.00;99346.63;5049432;28;20032;-73
2023/01/17 07:47:09;;;;;;;31.38;20.88;;;;;;;9.66;100.00;99473.84;5049474;28;20035;-75
2023/01/17 07:49:35;;;;;;;33.55;21.73;;;;;;;9.50;100.00;99401.63;5053291;28;20067;-76
2023/01/17 07:52:07;;;;;;;37.35;24.52;;;;;;;9.58;100.00;99409.81;5051540;28;20025;-78
2023/01/17 07:54:33;;;;;;;32.83;22.30;;;;;;;9.49;100.00;99352.59;5042104;28;20091;-77
2023/01/17 07:56:58;;;;;;;28.83;20.83;;;;;;;10.40;100.00;99440.81;5034720;28;20037;-76
2023/01/17 07:59:24;;;;;;;26.88;17.90;;;;;;;10.58;100.00;99432.53;5030826;28;20037;-76
2023/01/17 08:01:49;;;;;;;29.75;20.65;;;;;;;10.23;100.00;99346.59;5032594;28;20034;-73
2023/01/17 08:04:15;;;;;;;25.33;18.98;;;;;;;10.39;100.00;99361.25;5043705;28;20139;-74
2023/01/17 08:06:46;;;;;;;30.77;19.90;;;;;;;10.32;100.00;99347.09;5050911;28;20025;-79
2023/01/17 08:09:11;;;;;;;25.10;17.83;;;;;;;11.10;100.00;99411.88;5053031;28;20036;-75
2023/01/17 08:11:43;;;;;;;20.25;13.00;;;;;;;11.06;100.00;99389.16;5053390;28;20032;-79
2023/01/17 08:14:11;;;;;;;26.30;15.32;;;;;;;11.15;100.00;99392.16;5053899;28;20037;-78
2023/01/17 08:16:37;;;;;;;25.02;15.73;;;;;;;10.75;100.00;99335.31;5052249;28;20025;-77
2023/01/17 08:19:02;;;;;;;21.38;14.52;;;;;;;11.10;100.00;99393.22;5053786;28;20036;-79
2023/01/17 08:21:28;;;;;;;22.98;14.30;;;;;;;10.51;100.00;99275.25;5053286;28;20041;-74
2023/01/17 08:23:57;;;;;;;20.25;13.05;;;;;;;11.37;100.00;99409.94;5050469;28;20061;-73
2023/01/17 08:26:23;;;;;;;18.80;13.07;;;;;;;11.55;100.00;99406.63;5049172;28;20407;-75
2023/01/17 08:28:54;;;;;;;18.65;12.48;;;;;;;11.70;100.00;99416.25;5052394;28;20029;-73
2023/01/17 08:31:20;;;;;;;16.92;10.98;;;;;;;11.79;100.00;99420.94;5051512;28;20127;-74
2023/01/17 08:33:45;;;;;;;21.25;12.57;;;;;;;11.71;100.00;99372.03;5053073;28;20576;-82
2023/01/17 08:36:11;;;;;;;18.63;12.20;;;;;;;12.13;100.00;99420.31;5051738;28;20032;-81
2023/01/17 08:38:36;;;;;;;21.55;12.25;;;;;;;11.89;100.00;99360.25;5052515;28;20052;-79
2023/01/17 08:41:01;;;;;;;25.45;13.70;;;;;;;12.02;100.00;99372.38;5052736;28;20037;-74
2023/01/17 08:43:27;;;;;;;28.88;14.35;;;;;;;12.04;100.00;99344.31;5050506;28;20029;-74
2023/01/17 08:45:54;;;;;;;26.95;13.70;;;;;;;12.58;100.00;99394.50;5046130;28;20040;-75
2023/01/17 08:48:23;;;;;;;33.88;14.45;;;;;;;12.77;100.00;99392.78;5042798;28;20851;-73
2023/01/17 08:50:48;;;;;;;27.08;13.85;;;;;;;12.27;100.00;99315.22;5048999;28;20418;-70
2023/01/17 08:53:14;;;;;;;25.25;13.88;;;;;;;12.64;100.00;99391.69;5048883;28;20112;-69
2023/01/17 08:55:40;;;;;;;22.15;12.55;;;;;;;12.67;100.00;99320.16;5043761;28;20029;-71
2023/01/17 08:58:06;;;;;;;24.42;9.90;;;;;;;12.86;100.00;99313.25;5044727;28;20055;-70
2023/01/17 09:00:32;;;;;;;10.95;5.80;;;;;;;12.96;100.00;99307.66;5042190;28;20029;-68
2023/01/17 09:02:58;;;;;;;15.48;6.50;;;;;;;13.61;100.00;99381.03;5044726;28;20032;-69
2023/01/17 09:05:23;;;;;;;21.88;8.43;;;;;;;13.41;100.00;99358.19;5038459;28;20052;-69
2023/01/17 09:07:49;;;;;;;13.90;6.82;;;;;;;13.15;100.00;99322.09;5041638;28;20108;-69
2023/01/17 09:10:15;;;;;;;15.98;6.10;;;;;;;13.68;100.00;99397.72;5049333;28;20128;-74
2023/01/17 09:12:40;;;;;;;18.80;7.68;;;;;;;13.30;100.00;99316.25;5035230;28;20044;-76
2023/01/17 09:15:06;;;;;;;19.63;5.85;;;;;;;13.15;100.00;99305.06;5032197;28;20040;-75
2023/01/17 09:17:32;;;;;;;20.65;7.80;;;;;;;13.49;100.00;99396.16;5029739;28;20103;-74
2023/01/17 09:19:58;;;;;;;23.00;8.40;;;;;;;13.74;100.00;99383.81;5030070;28;20021;-71
2023/01/17 09:22:26;;;;;;;20.85;7.50;;;;;;;13.90;100.00;99380.38;5045782;28;20029;-75
2023/01/17 09:24:52;;;;;;;16.00;10.23;;;;;;;13.65;100.00;99392.75;5030572;28;20480;-75
2023/01/17 09:27:19;;;;;;;23.15;10.82;;;;;;;13.33;100.00;99327.13;5037939;28;20140;-73
2023/01/17 09:29:44;;;;;;;20.90;10.30;;;;;;;13.18;100.00;99339.81;5043324;28;20503;-75
2023/01/17 09:32:10;;;;;;;18.05;8.00;;;;;;;13.60;100.00;99381.94;5046253;28;20090;-70
2023/01/17 09:34:35;;;;;;;13.43;6.38;;;;;;;13.67;100.00;99360.28;5033247;28;20091;-68
2023/01/17 09:37:01;;;;;;;28.48;15.25;;;;;;;13.43;100.00;99363.25;5035461;28;20055;-69
2023/01/17 09:39:26;;;;;;;19.95;9.88;;;;;;;13.45;100.00;99351.25;5035651;28;20025;-70
2023/01/17 09:42:06;;;;;;;27.98;14.77;;;;;;;12.99;100.00;99278.63;5049351;28;20029;-72
2023/01/17 09:44:42;;;;;;;28.65;15.40;;;;;;;13.25;100.00;99329.22;5048959;28;20048;-72
2023/01/17 09:47:14;;;;;;;30.00;14.80;;;;;;;13.52;100.00;99360.22;5044176;28;20039;-71
2023/01/17 09:49:44;;;;;;;29.17;15.82;;;;;;;13.29;100.00;99287.31;5048045;28;20530;-69
2023/01/17 09:52:18;;;;;;;39.30;20.38;;;;;;;13.29;100.00;99310.28;5046403;28;20764;-70
2023/01/17 09:54:47;;;;;;;31.05;19.40;;;;;;;13.21;100.00;99289.44;5046496;28;20053;-70
2023/01/17 09:57:30;;;;;;;25.92;17.08;;;;;;;13.76;100.00;99359.00;5039649;28;20037;-70
2023/01/17 10:00:02;;;;;;;30.35;16.52;;;;;;;14.00;100.00;99350.09;5042877;28;20087;-71
2023/01/17 10:02:30;;;;;;;34.28;18.70;;;;;;;13.81;100.00;99355.31;5032547;28;20132;-72
2023/01/17 10:05:07;;;;;;;40.22;23.33;;;;;;;13.77;100.00;99348.69;5032464;28;20057;-69
2023/01/17 10:07:49;;;;;;;42.33;25.50;;;;;;;13.70;100.00;99351.66;5048176;28;20075;-70
2023/01/17 10:10:21;;;;;;;26.65;14.57;;;;;;;13.00;100.00;99234.34;5042188;28;20887;-69
2023/01/17 10:13:07;;;;;;;19.50;11.95;;;;;;;13.67;100.00;99362.84;5036067;28;20043;-68
2023/01/17 10:15:51;;;;;;;21.20;12.00;;;;;;;13.63;100.00;99360.50;5049719;28;20116;-68
2023/01/17 10:18:39;;;;;;;17.83;9.38;;;;;;;13.55;100.00;99350.69;5048097;28;20025;-67
2023/01/17 10:21:13;;;;;;;21.98;9.10;;;;;;;13.13;100.00;99277.97;5050675;28;20067;-68
2023/01/17 10:24:15;;;;;;;15.48;7.97;;;;;;;13.56;100.00;99343.84;5049199;28;20077;-70
2023/01/17 10:26:42;;;;;;;15.50;8.38;;;;;;;13.60;100.00;99350.47;5050729;28;20120;-72
2023/01/17 10:29:15;;;;;;;16.65;7.40;;;;;;;13.56;100.00;99338.75;5051275;28;20662;-69
2023/01/17 10:31:53;;;;;;;18.02;8.40;;;;;;;13.17;100.00;99274.38;5049378;28;20065;-69
2023/01/17 10:34:25;;;;;;;20.48;8.85;;;;;;;13.17;100.00;99267.53;5029839;28;20136;-69
2023/01/17 10:37:01;;;;;;;31.77;17.50;;;;;;;13.63;100.00;99340.91;5048280;28;20119;-69
2023/01/17 10:39:29;;;;;;;22.67;14.85;;;;;;;13.40;100.00;99282.53;5043896;28;20028;-72
2023/01/17 10:42:12;;;;;;;20.45;11.48;;;;;;;13.24;100.00;99257.84;5049116;28;20932;-69
2023/01/17 10:44:47;;;;;;;15.95;8.85;;;;;;;13.27;100.00;99245.72;5042476;28;20040;-67
2023/01/17 10:47:22;;;;;;;15.27;8.15;;;;;;;13.39;100.00;99252.78;5043989;28;20045;-77
2023/01/17 10:49:51;;;;;;;19.73;9.25;;;;;;;13.76;100.00;99324.06;5044509;28;20025;-74
2023/01/17 10:52:30;;;;;;;19.30;10.20;;;;;;;13.74;100.00;99318.22;5049799;28;20102;-70
2023/01/17 10:55:05;;;;;;;18.75;10.05;;;;;;;13.87;100.00;99320.94;5051019;28;20033;-71
2023/01/17 10:57:45;;;;;;;28.27;14.65;;;;;;;13.89;100.00;99319.13;5049962;28;20410;-71
2023/01/17 11:00:19;;;;;;;24.85;13.10;;;;;;;13.67;100.00;99250.44;5049701;28;20111;-72
2023/01/17 11:02:49;;;;;;;20.75;10.35;;;;;;;14.20;100.00;99244.22;5048210;28;20113;-75
2023/01/17 11:05:24;;;;;;;20.23;8.52;;;;;;;14.10;100.00;99268.63;5040457;28;20040;-77
2023/01/17 11:08:06;;;;;;;18.70;7.80;;;;;;;14.16;100.00;99321.97;5045791;28;20032;-74
2023/01/17 11:10:48;;;;;;;15.15;8.93;;;;;;;13.73;100.00;99247.56;5035598;28;20025;-73
2023/01/17 11:13:35;;;;;;;21.25;10.05;;;;;;;13.63;100.00;99222.59;5048331;28;20033;-74
2023/01/17 11:16:08;;;;;;;18.42;8.18;;;;;;;14.06;100.00;99296.09;5046723;28;20039;-70
2023/01/17 11:18:37;;;;;;;19.50;8.75;;;;;;;13.93;100.00;99298.47;5050803;28;20040;-73
2023/01/17 11:21:16;;;;;;;20.60;8.60;;;;;;;13.87;100.00;99257.91;5036884;28;20060;-73
2023/01/17 11:23:47;;;;;;;15.90;9.27;;;;;;;13.61;100.00;99238.00;5037795;28;20423;-72
2023/01/17 11:26:46;;;;;;;20.63;9.48;;;;;;;13.94;100.00;99302.66;5038727;28;20774;-74
2023/01/17 11:29:23;;;;;;;24.27;9.65;;;;;;;14.00;100.00;99308.34;5041027;28;20049;-69
2023/01/17 11:31:49;;;;;;;18.90;8.88;;;;;;;13.55;100.00;99232.38;5037659;28;20131;-70
2023/01/17 11:34:17;;;;;;;17.02;7.82;;;;;;;14.22;100.00;99294.34;5040152;28;20074;-70
2023/01/17 11:36:43;;;;;;;17.27;8.32;;;;;;;13.69;100.00;99217.16;5037898;28;20032;-70
2023/01/17 11:39:17;;;;;;;17.02;8.35;;;;;;;14.29;100.00;99300.81;5031153;28;20095;-70
2023/01/17 11:41:46;;;;;;;17.35;9.05;;;;;;;13.90;100.00;99234.72;5044435;28;20033;-69
2023/01/17 11:44:27;;;;;;;18.30;11.45;;;;;;;13.88;100.00;99261.28;5040409;28;20026;-70
2023/01/17 11:47:11;;;;;;;23.40;11.68;;;;;;;14.02;100.00;99281.00;5029430;28;20037;-71
2023/01/17 11:49:38;;;;;;;25.13;13.00;;;;;;;14.02;100.00;99268.22;5033169;28;20131;-70
2023/01/17 11:52:09;;;;;;;19.50;11.38;;;;;;;13.88;100.00;99200.75;5048655;28;20407;-75
2023/01/17 11:54:41;;;;;;;27.27;13.50;;;;;;;13.98;100.00;99259.06;5040069;28;20021;-71
2023/01/17 11:57:38;;;;;;;24.75;12.98;;;;;;;13.99;100.00;99266.63;5049928;28;20037;-71
2023/01/17 12:00:25;;;;;;;29.45;16.48;;;;;;;14.06;100.00;99272.25;5051152;28;20519;-71
2023/01/17 12:03:08;;;;;;;36.58;25.88;;;;;;;13.83;100.00;99235.13;5050076;28;20039;-72
2023/01/17 12:06:05;;;;;;;23.02;15.52;;;;;;;14.05;100.00;99256.09;5051460;28;20113;-71
2023/01/17 12:08:58;;;;;;;24.10;16.85;;;;;;;14.06;100.00;99252.63;5049688;28;20033;-69
2023/01/17 12:13:59;;;;;;;32.88;18.13;;;;;;;13.72;100.00;99179.53;5050639;28;20068;-71
2023/01/17 12:15:03;;;;;;;38.75;22.35;;;;;;;14.20;100.00;99255.25;5049749;28;20119;-70
2023/01/17 12:17:31;;;;;;;37.75;21.75;;;;;;;14.12;100.00;99264.25;5029621;28;20041;-71
2023/01/17 12:20:00;;;;;;;31.50;17.25;;;;;;;13.97;100.00;99253.13;5045094;28;20090;-69
2023/01/17 12:22:48;;;;;;;28.13;14.30;;;;;;;14.07;100.00;99272.16;5041310;28;20027;-70
2023/01/17 12:25:30;;;;;;;26.67;15.32;;;;;;;14.13;100.00;99278.69;5046361;28;20411;-69
2023/01/17 12:28:20;;;;;;;31.00;17.05;;;;;;;14.09;100.00;99287.41;5045404;28;20418;-70
2023/01/17 12:31:04;;;;;;;33.97;18.90;;;;;;;14.09;100.00;99284.84;5048699;28;20036;-71
2023/01/17 12:34:15;;;;;;;37.03;22.40;;;;;;;14.02;100.00;99281.81;5043412;28;20029;-70
2023/01/17 12:37:00;;;;;;;50.17;30.30;;;;;;;14.05;100.00;99285.94;5048995;28;20033;-71
2023/01/17 12:39:38;;;;;;;57.75;36.83;;;;;;;13.87;100.00;99251.94;5044594;28;20029;-71
2023/01/17 12:42:19;;;;;;;40.22;24.17;;;;;;;13.95;100.00;99260.03;5039723;28;20036;-71
2023/01/17 12:44:53;;;;;;;25.10;15.93;;;;;;;13.94;100.00;99274.53;5049209;28;20039;-70
2023/01/17 12:47:20;;;;;;;25.77;17.20;;;;;;;13.87;100.00;99255.34;5049230;28;20487;-71
2023/01/17 12:50:14;;;;;;;27.83;17.45;;;;;;;13.84;100.00;99275.94;5049636;28;20120;-72
2023/01/17 12:53:04;;;;;;;27.48;16.00;;;;;;;13.84;100.00;99286.16;5037595;28;20193;-72